createdAt,value
2018-04-29T00:01:31.080Z,29.53
2018-04-29T00:04:00.334Z,34.30
2018-04-29T00:06:28.626Z,31.47
2018-04-29T00:08:56.981Z,30.20
2018-04-29T00:11:25.251Z,28.90
2018-04-29T00:13:53.457Z,29.80
2018-04-29T00:16:21.642Z,36.67
2018-04-29T00:18:49.853Z,35.37
2018-04-29T00:21:18.095Z,36.10
2018-04-29T00:23:47.146Z,38.77
2018-04-29T00:26:15.384Z,36.30
2018-04-29T00:28:43.699Z,36.23
2018-04-29T00:31:11.955Z,29.50
2018-04-29T00:33:40.257Z,23.70
2018-04-29T00:36:08.447Z,20.23
2018-04-29T00:38:36.823Z,19.57
2018-04-29T00:41:05.245Z,27.10
2018-04-29T00:43:34.406Z,25.07
2018-04-29T00:46:02.632Z,25.17
2018-04-29T00:48:31.642Z,26.60
2018-04-29T00:50:59.893Z,30.20
2018-04-29T00:53:28.951Z,30.37
2018-04-29T00:55:57.322Z,32.23
2018-04-29T00:58:25.637Z,31.90
2018-04-29T01:00:54.054Z,39.13
2018-04-29T01:03:22.276Z,55.80
2018-04-29T01:05:50.516Z,50.47
2018-04-29T01:08:18.743Z,59.53
2018-04-29T01:10:47.816Z,55.33
2018-04-29T01:13:16.028Z,51.50
2018-04-29T01:15:45.028Z,41.63
2018-04-29T01:18:14.010Z,37.37
2018-04-29T01:20:52.279Z,37.80
2018-04-29T01:23:21.482Z,41.23
2018-04-29T01:25:51.635Z,45.43
2018-04-29T01:28:19.930Z,41.80
2018-04-29T01:30:49.391Z,47.83
2018-04-29T01:33:18.456Z,48.20
2018-04-29T01:35:46.783Z,41.47
2018-04-29T01:38:15.051Z,39.70
2018-04-29T01:40:44.075Z,40.20
2018-04-29T01:43:13.439Z,40.57
2018-04-29T01:45:42.574Z,37.00
2018-04-29T01:48:12.359Z,36.37
2018-04-29T01:50:40.624Z,34.13
2018-04-29T01:53:09.012Z,31.07
2018-04-29T01:55:37.251Z,31.43
2018-04-29T01:58:05.550Z,32.30
2018-04-29T02:00:34.042Z,28.33
2018-04-29T02:03:02.269Z,31.47
2018-04-29T02:05:31.421Z,32.47
2018-04-29T02:07:59.648Z,37.47
2018-04-29T02:10:28.906Z,35.47
2018-04-29T02:12:57.154Z,37.00
2018-04-29T02:15:25.337Z,37.57
2018-04-29T02:17:53.585Z,42.50
2018-04-29T02:20:22.598Z,42.67
2018-04-29T02:22:50.827Z,44.43
2018-04-29T02:25:20.574Z,45.80
2018-04-29T02:27:49.762Z,44.17
2018-04-29T02:30:18.336Z,47.47
2018-04-29T02:32:46.565Z,46.97
2018-04-29T02:35:14.771Z,47.63
2018-04-29T02:37:43.049Z,47.43
2018-04-29T02:40:11.399Z,44.20
2018-04-29T02:42:39.792Z,44.47
2018-04-29T02:45:08.006Z,44.03
2018-04-29T02:47:37.309Z,43.27
2018-04-29T02:50:05.586Z,44.63
2018-04-29T02:52:34.749Z,45.10
2018-04-29T02:55:03.141Z,45.33
2018-04-29T02:57:31.344Z,43.90
2018-04-29T02:59:59.561Z,42.43
2018-04-29T03:02:27.764Z,43.80
2018-04-29T03:04:56.805Z,43.80
2018-04-29T03:07:26.065Z,42.80
2018-04-29T03:09:54.953Z,38.73
2018-04-29T03:12:23.305Z,40.17
2018-04-29T03:14:51.555Z,45.70
2018-04-29T03:17:20.570Z,37.03
2018-04-29T03:19:48.809Z,37.20
2018-04-29T03:22:17.051Z,36.80
2018-04-29T03:24:45.243Z,32.40
2018-04-29T03:27:13.773Z,31.97
2018-04-29T03:29:42.121Z,30.27
2018-04-29T03:32:10.494Z,28.60
2018-04-29T03:34:39.215Z,27.27
2018-04-29T03:37:07.512Z,26.80
2018-04-29T03:39:35.744Z,26.67
2018-04-29T03:42:05.016Z,28.87
2018-04-29T03:44:33.292Z,25.73
2018-04-29T03:47:02.598Z,23.57
2018-04-29T03:49:30.836Z,22.70
2018-04-29T03:51:59.976Z,21.67
2018-04-29T03:54:28.216Z,22.10
2018-04-29T03:57:08.352Z,19.93
2018-04-29T03:59:48.605Z,22.60
2018-04-29T04:02:29.493Z,21.27
2018-04-29T04:04:57.776Z,19.87
2018-04-29T04:07:26.015Z,20.30
2018-04-29T04:09:54.217Z,20.30
2018-04-29T04:12:23.176Z,21.13
2018-04-29T04:14:51.432Z,20.50
2018-04-29T04:17:21.483Z,21.80
2018-04-29T04:19:49.819Z,21.10
2018-04-29T04:22:18.008Z,20.57
2018-04-29T04:24:46.291Z,20.60
2018-04-29T04:27:14.643Z,21.50
2018-04-29T04:29:42.935Z,21.27
2018-04-29T04:32:11.201Z,21.30
2018-04-29T04:34:39.429Z,20.00
2018-04-29T04:37:07.773Z,21.53
2018-04-29T04:39:36.007Z,21.97
2018-04-29T04:42:05.261Z,20.17
2018-04-29T04:44:33.461Z,20.33
2018-04-29T04:47:01.683Z,19.03
2018-04-29T04:49:29.988Z,19.47
2018-04-29T04:51:58.212Z,19.40
2018-04-29T04:54:27.371Z,18.53
2018-04-29T04:56:55.614Z,20.40
2018-04-29T04:59:23.813Z,19.90
2018-04-29T05:01:52.207Z,19.63
2018-04-29T05:04:20.480Z,19.00
2018-04-29T05:06:48.764Z,18.07
2018-04-29T05:09:17.044Z,19.00
2018-04-29T05:11:45.316Z,19.33
2018-04-29T05:14:13.856Z,18.73
2018-04-29T05:16:42.912Z,19.07
2018-04-29T05:19:11.165Z,21.83
2018-04-29T05:21:39.364Z,21.60
2018-04-29T05:24:07.924Z,18.93
2018-04-29T05:26:36.220Z,18.60
2018-04-29T05:29:04.477Z,18.77
2018-04-29T05:31:32.707Z,19.43
2018-04-29T05:34:01.960Z,18.97
2018-04-29T05:36:30.241Z,19.43
2018-04-29T05:38:58.518Z,19.20
2018-04-29T05:41:26.830Z,19.37
2018-04-29T05:43:55.280Z,19.80
2018-04-29T05:46:24.186Z,20.77
2018-04-29T05:48:52.554Z,19.10
2018-04-29T05:51:20.968Z,19.77
2018-04-29T05:53:49.237Z,20.63
2018-04-29T05:56:18.238Z,20.07
2018-04-29T05:58:46.696Z,19.73
2018-04-29T06:01:15.680Z,22.70
2018-04-29T06:03:43.895Z,21.13
2018-04-29T06:06:12.149Z,21.70
2018-04-29T06:08:40.412Z,19.60
2018-04-29T06:11:09.591Z,21.30
2018-04-29T06:13:38.117Z,20.37
2018-04-29T06:16:07.139Z,21.20
2018-04-29T06:18:35.484Z,21.73
2018-04-29T06:21:03.739Z,21.47
2018-04-29T06:23:32.155Z,22.00
2018-04-29T06:26:00.457Z,20.80
2018-04-29T06:28:28.642Z,19.93
2018-04-29T06:30:57.100Z,19.27
2018-04-29T06:33:25.448Z,20.63
2018-04-29T06:35:53.676Z,18.80
2018-04-29T06:38:22.254Z,19.70
2018-04-29T06:40:51.998Z,18.10
2018-04-29T06:43:20.282Z,18.83
2018-04-29T06:45:48.531Z,18.43
2018-04-29T06:48:16.778Z,17.63
2018-04-29T06:50:46.660Z,18.77
2018-04-29T06:53:14.892Z,17.57
2018-04-29T06:55:43.932Z,18.23
2018-04-29T06:58:12.197Z,18.50
2018-04-29T07:00:41.426Z,18.17
2018-04-29T07:03:09.839Z,19.93
2018-04-29T07:05:38.488Z,18.87
2018-04-29T07:08:06.875Z,19.57
2018-04-29T07:10:35.179Z,19.67
2018-04-29T07:13:04.261Z,18.43
2018-04-29T07:15:32.662Z,18.87
2018-04-29T07:18:01.008Z,17.80
2018-04-29T07:20:30.069Z,17.67
2018-04-29T07:22:58.392Z,19.27
2018-04-29T07:25:26.733Z,18.47
2018-04-29T07:27:55.040Z,19.93
2018-04-29T07:30:23.408Z,19.43
2018-04-29T07:32:51.609Z,19.57
2018-04-29T07:35:20.192Z,19.67
2018-04-29T07:37:48.464Z,18.83
2018-04-29T07:40:16.727Z,20.07
2018-04-29T07:42:46.546Z,21.33
2018-04-29T07:45:15.845Z,22.20
2018-04-29T07:47:44.240Z,21.70
2018-04-29T07:50:13.373Z,21.63
2018-04-29T07:52:41.746Z,24.23
2018-04-29T07:55:10.779Z,22.97
2018-04-29T07:57:39.017Z,22.13
2018-04-29T08:00:07.474Z,22.60
2018-04-29T08:02:35.937Z,22.17
2018-04-29T08:05:04.201Z,23.90
2018-04-29T08:07:32.489Z,23.13
2018-04-29T08:10:00.731Z,24.57
2018-04-29T08:12:28.959Z,23.90
2018-04-29T08:14:57.861Z,23.77
2018-04-29T08:17:26.219Z,25.33
2018-04-29T08:19:54.443Z,24.70
2018-04-29T08:22:23.594Z,24.77
2018-04-29T08:24:53.487Z,24.03
2018-04-29T08:27:21.725Z,25.07
2018-04-29T08:29:49.995Z,25.20
2018-04-29T08:32:18.248Z,25.60
2018-04-29T08:34:46.487Z,25.90
2018-04-29T08:37:14.798Z,25.73
2018-04-29T08:39:43.273Z,26.13
2018-04-29T08:42:11.484Z,24.90
2018-04-29T08:44:40.548Z,26.57
2018-04-29T08:47:08.837Z,23.47
2018-04-29T08:49:37.211Z,24.00
2018-04-29T08:52:05.538Z,24.37
2018-04-29T08:54:34.282Z,25.93
2018-04-29T08:57:03.661Z,22.77
2018-04-29T08:59:33.655Z,22.90
2018-04-29T09:02:02.689Z,22.53
2018-04-29T09:04:30.955Z,23.03
2018-04-29T09:06:59.903Z,22.90
2018-04-29T09:09:28.975Z,25.13
2018-04-29T09:11:57.213Z,26.27
2018-04-29T09:14:26.181Z,25.33
2018-04-29T09:16:55.878Z,25.57
2018-04-29T09:19:24.127Z,26.03
2018-04-29T09:21:52.330Z,26.20
2018-04-29T09:24:21.436Z,24.87
2018-04-29T09:26:49.791Z,24.50
2018-04-29T09:29:20.926Z,28.37
2018-04-29T09:31:49.335Z,26.33
2018-04-29T09:34:17.615Z,28.53
2018-04-29T09:36:46.713Z,28.27
2018-04-29T09:39:15.740Z,26.70
2018-04-29T09:41:44.121Z,27.47
2018-04-29T09:44:12.555Z,26.70
2018-04-29T09:46:40.815Z,27.43
2018-04-29T09:49:09.047Z,29.47
2018-04-29T09:51:37.382Z,27.63
2018-04-29T09:54:08.653Z,27.47
2018-04-29T09:56:38.452Z,27.97
2018-04-29T09:59:06.745Z,29.33
2018-04-29T10:01:36.270Z,30.10
2018-04-29T10:04:04.524Z,29.63
2018-04-29T10:06:32.842Z,30.20
2018-04-29T10:09:01.812Z,28.13
2018-04-29T10:11:30.100Z,30.30
2018-04-29T10:13:58.524Z,28.30
2018-04-29T10:16:27.683Z,28.40
2018-04-29T10:18:56.204Z,29.73
2018-04-29T10:21:24.452Z,29.30
2018-04-29T10:23:52.746Z,28.83
2018-04-29T10:26:20.956Z,29.53
2018-04-29T10:28:49.340Z,29.60
2018-04-29T10:31:17.700Z,31.30
2018-04-29T10:33:46.137Z,33.17
2018-04-29T10:36:15.276Z,32.10
2018-04-29T10:38:43.888Z,33.20
2018-04-29T10:41:12.240Z,33.63
2018-04-29T10:43:40.546Z,34.43
2018-04-29T10:48:48.719Z,40.47
2018-04-29T10:51:17.411Z,38.83
2018-04-29T10:53:45.630Z,40.37
2018-04-29T10:56:14.100Z,40.57
2018-04-29T10:58:42.633Z,43.13
2018-04-29T11:01:10.872Z,47.87
2018-04-29T11:03:39.249Z,46.80
2018-04-29T11:06:07.559Z,47.97
2018-04-29T11:08:36.304Z,49.07
2018-04-29T11:11:04.622Z,48.73
2018-04-29T11:13:32.849Z,52.73
2018-04-29T11:16:01.124Z,55.93
2018-04-29T11:18:29.334Z,56.23
2018-04-29T11:20:57.565Z,55.23
2018-04-29T11:23:25.900Z,57.17
2018-04-29T11:25:54.093Z,50.87
2018-04-29T11:28:23.185Z,51.07
2018-04-29T11:30:52.173Z,53.37
2018-04-29T11:33:21.534Z,55.63
2018-04-29T11:35:49.737Z,54.90
2018-04-29T11:38:18.199Z,56.20
2018-04-29T11:40:46.463Z,59.13
2018-04-29T11:43:14.961Z,58.37
2018-04-29T11:45:43.533Z,53.23
2018-04-29T11:48:11.834Z,51.80
2018-04-29T11:50:40.024Z,47.83
2018-04-29T11:53:08.299Z,48.03
2018-04-29T11:55:36.513Z,47.27
2018-04-29T11:58:05.826Z,40.47
2018-04-29T12:00:34.842Z,42.03
2018-04-29T12:03:03.307Z,39.83
2018-04-29T12:05:31.553Z,39.17
2018-04-29T12:07:59.861Z,33.83
2018-04-29T12:10:28.158Z,35.20
2018-04-29T12:12:56.744Z,39.37
2018-04-29T12:15:24.971Z,34.00
2018-04-29T12:17:53.446Z,31.20
2018-04-29T12:20:21.689Z,29.90
2018-04-29T12:22:49.920Z,31.90
2018-04-29T12:25:19.186Z,28.97
2018-04-29T12:27:47.486Z,28.63
2018-04-29T12:30:15.960Z,29.00
2018-04-29T12:32:46.086Z,33.13
2018-04-29T12:35:14.347Z,45.10
2018-04-29T12:37:42.695Z,44.10
2018-04-29T12:40:10.917Z,41.63
2018-04-29T12:42:39.210Z,44.70
2018-04-29T12:45:08.364Z,43.73
2018-04-29T12:47:36.651Z,45.37
2018-04-29T12:50:05.860Z,43.50
2018-04-29T12:52:34.220Z,33.67
2018-04-29T12:55:03.162Z,39.07
2018-04-29T12:57:32.179Z,38.07
2018-04-29T13:00:00.485Z,44.23
2018-04-29T13:02:28.737Z,36.80
2018-04-29T13:04:57.059Z,39.33
2018-04-29T13:07:26.325Z,38.97
2018-04-29T13:09:54.744Z,37.87
2018-04-29T13:12:22.995Z,37.43
2018-04-29T13:14:51.266Z,28.17
2018-04-29T13:17:20.095Z,28.03
2018-04-29T13:19:48.452Z,28.93
2018-04-29T13:22:16.929Z,24.80
2018-04-29T13:24:45.174Z,28.60
2018-04-29T13:27:14.503Z,29.13
2018-04-29T13:29:42.856Z,38.07
2018-04-29T13:32:11.877Z,34.33
2018-04-29T13:34:40.112Z,35.37
2018-04-29T13:37:09.487Z,36.73
2018-04-29T13:39:37.734Z,33.87
2018-04-29T13:42:06.295Z,32.60
2018-04-29T13:44:34.505Z,33.47
2018-04-29T13:47:02.813Z,34.87
2018-04-29T13:49:31.876Z,32.73
2018-04-29T13:52:00.139Z,34.40
2018-04-29T13:54:28.529Z,36.13
2018-04-29T13:56:56.817Z,32.40
2018-04-29T13:59:25.126Z,36.67
2018-04-29T14:01:53.520Z,35.87
2018-04-29T14:04:21.821Z,35.43
2018-04-29T14:06:50.140Z,32.53
2018-04-29T14:09:18.440Z,36.57
2018-04-29T14:11:47.645Z,35.10
2018-04-29T14:14:16.661Z,34.97
2018-04-29T14:16:45.739Z,37.03
2018-04-29T14:19:14.043Z,31.07
2018-04-29T14:21:42.429Z,34.13
2018-04-29T14:24:11.397Z,31.77
2018-04-29T14:26:39.738Z,34.40
2018-04-29T14:29:08.086Z,31.40
2018-04-29T14:31:37.208Z,35.43
2018-04-29T14:34:05.804Z,37.60
2018-04-29T14:36:34.186Z,39.93
2018-04-29T14:39:02.455Z,37.23
2018-04-29T14:41:30.740Z,47.30
2018-04-29T14:43:59.111Z,57.63
2018-04-29T14:46:27.364Z,66.00
2018-04-29T14:48:55.688Z,63.83
2018-04-29T14:51:24.014Z,66.77
2018-04-29T14:53:53.230Z,68.60
2018-04-29T14:56:21.473Z,65.40
2018-04-29T14:58:49.907Z,67.77
2018-04-29T15:01:18.508Z,65.17
2018-04-29T15:03:46.847Z,56.50
2018-04-29T15:06:16.078Z,64.90
2018-04-29T15:08:45.263Z,57.87
2018-04-29T15:11:13.682Z,57.10
2018-04-29T15:13:42.717Z,56.07
2018-04-29T15:16:11.225Z,49.77
2018-04-29T15:18:51.521Z,46.70
2018-04-29T15:21:19.792Z,56.73
2018-04-29T15:23:48.815Z,54.33
2018-04-29T15:26:17.793Z,54.40
2018-04-29T15:28:46.122Z,52.13
2018-04-29T15:31:18.323Z,56.00
2018-04-29T15:33:47.847Z,51.70
2018-04-29T15:36:16.502Z,53.43
2018-04-29T15:38:44.946Z,55.70
2018-04-29T15:41:14.080Z,56.80
2018-04-29T15:43:42.555Z,57.87
2018-04-29T15:46:11.741Z,59.83
2018-04-29T15:48:40.829Z,66.87
2018-04-29T15:51:09.301Z,62.17
2018-04-29T15:53:37.603Z,58.83
2018-04-29T15:56:06.298Z,60.27
2018-04-29T15:58:35.481Z,63.90
2018-04-29T16:01:03.749Z,58.73
2018-04-29T16:03:31.978Z,70.27
2018-04-29T16:06:01.055Z,61.00
2018-04-29T16:08:29.308Z,65.60
2018-04-29T16:10:57.569Z,65.30
2018-04-29T16:13:26.709Z,59.20
2018-04-29T16:15:55.695Z,59.37
2018-04-29T16:18:24.234Z,57.13
2018-04-29T16:20:53.384Z,60.97
2018-04-29T16:23:21.854Z,64.27
2018-04-29T16:25:50.120Z,56.73
2018-04-29T16:28:18.340Z,49.10
2018-04-29T16:30:46.626Z,57.50
2018-04-29T16:33:15.696Z,57.37
2018-04-29T16:35:44.888Z,57.77
2018-04-29T16:38:13.204Z,52.93
2018-04-29T16:40:41.361Z,51.73
2018-04-29T16:43:09.689Z,52.87
2018-04-29T16:45:38.100Z,54.73
2018-04-29T16:48:06.493Z,50.87
2018-04-29T16:50:34.704Z,45.60
2018-04-29T16:53:03.961Z,49.07
2018-04-29T16:55:32.265Z,47.10
2018-04-29T16:58:00.560Z,46.37
2018-04-29T17:00:29.665Z,50.67
2018-04-29T17:02:57.969Z,48.63
2018-04-29T17:05:27.098Z,47.23
2018-04-29T17:07:55.365Z,48.47
2018-04-29T17:10:24.467Z,49.87
2018-04-29T17:12:52.851Z,44.10
2018-04-29T17:15:21.097Z,45.57
2018-04-29T17:17:50.229Z,47.20
2018-04-29T17:20:18.477Z,45.20
2018-04-29T17:22:46.721Z,41.67
2018-04-29T17:25:15.730Z,44.67
2018-04-29T17:27:43.969Z,44.77
2018-04-29T17:30:12.331Z,45.43
2018-04-29T17:32:40.827Z,44.90
2018-04-29T17:35:09.138Z,48.50
2018-04-29T17:37:37.370Z,42.67
2018-04-29T17:40:05.640Z,44.83
2018-04-29T17:42:35.520Z,44.97
2018-04-29T17:45:04.587Z,40.47
2018-04-29T17:47:33.687Z,45.00
2018-04-29T17:50:01.898Z,42.60
2018-04-29T17:52:30.152Z,41.00
2018-04-29T17:54:59.249Z,44.70
2018-04-29T17:57:28.481Z,43.07
2018-04-29T17:59:56.790Z,44.60
2018-04-29T18:02:25.063Z,45.03
2018-04-29T18:04:53.322Z,44.20
2018-04-29T18:07:21.598Z,45.57
2018-04-29T18:09:49.956Z,43.50
2018-04-29T18:12:18.256Z,42.73
2018-04-29T18:14:46.673Z,46.53
2018-04-29T18:17:15.041Z,47.10
2018-04-29T18:19:43.326Z,41.87
2018-04-29T18:22:11.693Z,45.53
2018-04-29T18:24:40.012Z,42.30
2018-04-29T18:27:08.286Z,43.90
2018-04-29T18:29:36.547Z,39.87
2018-04-29T18:32:07.693Z,42.60
2018-04-29T18:34:43.936Z,33.77
2018-04-29T18:37:17.343Z,33.00
2018-04-29T18:39:46.978Z,32.07
2018-04-29T18:42:16.130Z,33.87
2018-04-29T18:44:44.353Z,35.17
2018-04-29T18:47:12.657Z,35.20
2018-04-29T18:49:41.186Z,36.87
2018-04-29T18:52:09.436Z,31.83
2018-04-29T18:54:37.882Z,31.53
2018-04-29T18:57:06.106Z,35.10
2018-04-29T18:59:34.451Z,34.67
2018-04-29T19:02:02.732Z,34.10
2018-04-29T19:04:31.872Z,33.00
2018-04-29T19:07:00.120Z,35.10
2018-04-29T19:09:29.185Z,37.77
2018-04-29T19:11:57.669Z,35.90
2018-04-29T19:14:25.946Z,36.83
2018-04-29T19:16:55.897Z,34.97
2018-04-29T19:19:24.184Z,37.77
2018-04-29T19:21:52.409Z,39.60
2018-04-29T19:24:20.648Z,36.77
2018-04-29T19:26:48.883Z,37.50
2018-04-29T19:29:18.719Z,37.13
2018-04-29T19:31:47.701Z,38.67
2018-04-29T19:34:15.950Z,36.60
2018-04-29T19:36:44.685Z,37.73
2018-04-29T19:39:13.710Z,37.77
2018-04-29T19:41:42.042Z,35.87
2018-04-29T19:44:10.365Z,41.53
2018-04-29T19:46:38.850Z,42.07
2018-04-29T19:49:07.231Z,43.70
2018-04-29T19:51:35.692Z,44.07
2018-04-29T19:54:03.933Z,46.07
2018-04-29T19:56:33.076Z,49.23
2018-04-29T19:59:01.374Z,47.53
2018-04-29T20:01:29.633Z,49.97
2018-04-29T20:03:57.865Z,48.20
2018-04-29T20:06:26.877Z,54.20
2018-04-29T20:08:55.287Z,53.13
2018-04-29T20:11:23.610Z,51.47
2018-04-29T20:13:52.623Z,53.20
2018-04-29T20:16:21.245Z,55.50
2018-04-29T20:18:49.451Z,58.17
2018-04-29T20:21:17.815Z,55.27
2018-04-29T20:23:48.898Z,55.00
2018-04-29T20:26:17.442Z,56.90
2018-04-29T20:28:45.740Z,60.23
2018-04-29T20:31:14.153Z,52.83
2018-04-29T20:33:43.513Z,50.13
2018-04-29T20:36:11.727Z,52.90
2018-04-29T20:38:40.273Z,58.13
2018-04-29T20:41:08.745Z,53.07
2018-04-29T20:43:37.016Z,55.90
2018-04-29T20:46:05.255Z,52.53
2018-04-29T20:48:34.377Z,50.60
2018-04-29T20:51:02.645Z,51.30
2018-04-29T20:53:30.935Z,45.77
2018-04-29T20:55:59.151Z,48.47
2018-04-29T20:58:27.398Z,43.60
2018-04-29T21:00:55.658Z,38.47
2018-04-29T21:03:24.899Z,39.90
2018-04-29T21:05:53.161Z,38.43
2018-04-29T21:08:21.552Z,37.20
2018-04-29T21:10:50.761Z,33.37
2018-04-29T21:13:20.046Z,32.90
2018-04-29T21:15:48.653Z,31.60
2018-04-29T21:18:19.577Z,31.83
2018-04-29T21:20:49.199Z,30.63
2018-04-29T21:23:17.715Z,29.10
2018-04-29T21:25:49.685Z,29.03
2018-04-29T21:28:18.723Z,29.57
2018-04-29T21:30:47.123Z,31.13
2018-04-29T21:33:15.414Z,30.80
2018-04-29T21:35:44.599Z,30.57
2018-04-29T21:38:12.884Z,31.20
2018-04-29T21:40:41.177Z,31.13
2018-04-29T21:43:09.539Z,33.47
2018-04-29T21:45:37.774Z,34.73
2018-04-29T21:48:06.008Z,35.77
2018-04-29T21:50:35.417Z,35.23
2018-04-29T21:53:03.709Z,36.00
2018-04-29T21:55:32.133Z,39.03
2018-04-29T21:58:00.467Z,42.20
2018-04-29T22:00:29.471Z,42.43
2018-04-29T22:02:57.704Z,44.63
2018-04-29T22:05:26.173Z,43.90
2018-04-29T22:07:54.717Z,44.97
2018-04-29T22:10:23.741Z,48.53
2018-04-29T22:12:51.943Z,50.83
2018-04-29T22:15:21.099Z,53.90
2018-04-29T22:17:49.488Z,54.10
2018-04-29T22:20:17.789Z,53.97
2018-04-29T22:22:46.771Z,56.37
2018-04-29T22:25:15.152Z,52.77
2018-04-29T22:27:43.359Z,52.77
2018-04-29T22:30:11.714Z,51.97
2018-04-29T22:32:39.955Z,53.13
2018-04-29T22:35:08.183Z,51.20
2018-04-29T22:37:36.520Z,48.20
2018-04-29T22:40:04.956Z,46.80
2018-04-29T22:42:34.034Z,47.00
2018-04-29T22:45:02.299Z,46.30
2018-04-29T22:47:30.784Z,43.97
2018-04-29T22:49:59.124Z,40.07
2018-04-29T22:52:27.404Z,35.67
2018-04-29T22:54:55.664Z,31.33
2018-04-29T22:57:24.669Z,32.37
2018-04-29T22:59:53.783Z,28.50
2018-04-29T23:02:22.188Z,27.07
2018-04-29T23:04:50.417Z,26.27
2018-04-29T23:07:19.417Z,24.90
2018-04-29T23:09:48.438Z,24.57
2018-04-29T23:12:16.667Z,21.80
2018-04-29T23:14:44.907Z,21.60
2018-04-29T23:17:13.261Z,20.80
2018-04-29T23:19:42.277Z,24.27
2018-04-29T23:22:12.541Z,21.93
2018-04-29T23:24:40.811Z,21.33
2018-04-29T23:27:09.169Z,23.37
2018-04-29T23:29:37.558Z,23.77
2018-04-29T23:32:05.857Z,22.93
2018-04-29T23:34:34.254Z,25.87
2018-04-29T23:37:02.485Z,23.27
2018-04-29T23:39:30.696Z,22.30
2018-04-29T23:41:59.669Z,21.77
2018-04-29T23:44:28.007Z,18.63
2018-04-29T23:46:56.625Z,22.17
2018-04-29T23:49:24.880Z,22.00
2018-04-29T23:51:53.189Z,20.87
2018-04-29T23:54:21.461Z,21.67
2018-04-29T23:56:49.722Z,24.90
2018-04-29T23:59:18.023Z,23.37
